sensor_id;sensor_type;location;lat;lon;timestamp;P1;durP1;ratioP1;P2;durP2;ratioP2
18265;SDS011;9259;48.194;16.322;2023-01-31T00:01:25;6.93;;;2.77;;
18265;SDS011;9259;48.194;16.322;2023-01-31T00:03:54;6.50;;;2.83;;
18265;SDS011;9259;48.194;16.322;2023-01-31T00:06:24;6.13;;;2.80;;
18265;SDS011;9259;48.194;16.322;2023-01-31T00:08:54;8.50;;;2.43;;
18265;SDS011;9259;48.194;16.322;2023-01-31T00:11:24;4.73;;;2.40;;
18265;SDS011;9259;48.194;16.322;2023-01-31T00:13:53;4.00;;;2.03;;
18265;SDS011;9259;48.194;16.322;2023-01-31T00:16:21;6.40;;;2.23;;
18265;SDS011;9259;48.194;16.322;2023-01-31T00:18:50;6.57;;;2.23;;
18265;SDS011;9259;48.194;16.322;2023-01-31T00:21:18;4.33;;;2.30;;
18265;SDS011;9259;48.194;16.322;2023-01-31T00:23:51;6.50;;;2.57;;
18265;SDS011;9259;48.194;16.322;2023-01-31T00:26:21;5.07;;;2.90;;
18265;SDS011;9259;48.194;16.322;2023-01-31T00:28:50;8.33;;;3.20;;
18265;SDS011;9259;48.194;16.322;2023-01-31T00:31:19;7.90;;;2.93;;
18265;SDS011;9259;48.194;16.322;2023-01-31T00:33:49;8.70;;;2.87;;
18265;SDS011;9259;48.194;16.322;2023-01-31T00:36:20;6.60;;;3.10;;
18265;SDS011;9259;48.194;16.322;2023-01-31T00:38:51;8.03;;;3.57;;
18265;SDS011;9259;48.194;16.322;2023-01-31T00:41:22;9.17;;;3.47;;
18265;SDS011;9259;48.194;16.322;2023-01-31T00:43:51;6.73;;;3.30;;
18265;SDS011;9259;48.194;16.322;2023-01-31T00:46:19;10.23;;;3.73;;
18265;SDS011;9259;48.194;16.322;2023-01-31T00:48:48;8.20;;;3.40;;
18265;SDS011;9259;48.194;16.322;2023-01-31T00:51:17;7.97;;;3.87;;
18265;SDS011;9259;48.194;16.322;2023-01-31T00:53:45;7.70;;;3.53;;
18265;SDS011;9259;48.194;16.322;2023-01-31T00:56:16;8.57;;;3.73;;
18265;SDS011;9259;48.194;16.322;2023-01-31T00:58:47;9.73;;;3.63;;
18265;SDS011;9259;48.194;16.322;2023-01-31T01:01:16;7.67;;;3.97;;
18265;SDS011;9259;48.194;16.322;2023-01-31T01:03:46;7.50;;;3.37;;
18265;SDS011;9259;48.194;16.322;2023-01-31T01:06:14;12.07;;;4.00;;
18265;SDS011;9259;48.194;16.322;2023-01-31T01:08:42;7.53;;;3.50;;
18265;SDS011;9259;48.194;16.322;2023-01-31T01:11:12;7.13;;;2.90;;
18265;SDS011;9259;48.194;16.322;2023-01-31T01:13:42;6.13;;;3.13;;
18265;SDS011;9259;48.194;16.322;2023-01-31T01:16:11;5.57;;;2.70;;
18265;SDS011;9259;48.194;16.322;2023-01-31T01:18:41;8.17;;;3.23;;
18265;SDS011;9259;48.194;16.322;2023-01-31T01:21:12;7.67;;;2.80;;
18265;SDS011;9259;48.194;16.322;2023-01-31T01:23:42;9.23;;;2.80;;
18265;SDS011;9259;48.194;16.322;2023-01-31T01:26:12;9.27;;;2.70;;
18265;SDS011;9259;48.194;16.322;2023-01-31T01:28:43;9.47;;;3.23;;
18265;SDS011;9259;48.194;16.322;2023-01-31T01:31:12;10.97;;;4.10;;
18265;SDS011;9259;48.194;16.322;2023-01-31T01:33:41;6.30;;;3.00;;
18265;SDS011;9259;48.194;16.322;2023-01-31T01:36:09;7.57;;;3.30;;
18265;SDS011;9259;48.194;16.322;2023-01-31T01:38:40;9.60;;;3.43;;
18265;SDS011;9259;48.194;16.322;2023-01-31T01:41:09;9.30;;;3.70;;
18265;SDS011;9259;48.194;16.322;2023-01-31T01:43:38;6.57;;;3.27;;
18265;SDS011;9259;48.194;16.322;2023-01-31T01:46:12;9.33;;;3.53;;
18265;SDS011;9259;48.194;16.322;2023-01-31T01:48:41;10.00;;;3.60;;
18265;SDS011;9259;48.194;16.322;2023-01-31T01:51:11;6.90;;;3.27;;
18265;SDS011;9259;48.194;16.322;2023-01-31T01:53:40;9.83;;;2.77;;
18265;SDS011;9259;48.194;16.322;2023-01-31T01:56:10;6.83;;;3.27;;
18265;SDS011;9259;48.194;16.322;2023-01-31T01:58:42;8.03;;;3.30;;
18265;SDS011;9259;48.194;16.322;2023-01-31T02:01:15;7.13;;;3.13;;
18265;SDS011;9259;48.194;16.322;2023-01-31T02:03:43;7.77;;;3.20;;
18265;SDS011;9259;48.194;16.322;2023-01-31T02:06:12;11.53;;;3.80;;
18265;SDS011;9259;48.194;16.322;2023-01-31T02:08:40;7.80;;;3.47;;
18265;SDS011;9259;48.194;16.322;2023-01-31T02:11:10;8.90;;;3.70;;
18265;SDS011;9259;48.194;16.322;2023-01-31T02:13:41;10.63;;;4.00;;
18265;SDS011;9259;48.194;16.322;2023-01-31T02:16:11;7.97;;;3.97;;
18265;SDS011;9259;48.194;16.322;2023-01-31T02:18:40;14.97;;;3.77;;
18265;SDS011;9259;48.194;16.322;2023-01-31T02:21:15;10.67;;;3.43;;
18265;SDS011;9259;48.194;16.322;2023-01-31T02:24:14;11.43;;;3.40;;
18265;SDS011;9259;48.194;16.322;2023-01-31T02:30:24;8.53;;;3.60;;
18265;SDS011;9259;48.194;16.322;2023-01-31T02:33:09;9.97;;;3.70;;
18265;SDS011;9259;48.194;16.322;2023-01-31T02:35:44;13.33;;;4.30;;
18265;SDS011;9259;48.194;16.322;2023-01-31T02:38:22;12.00;;;4.07;;
18265;SDS011;9259;48.194;16.322;2023-01-31T02:40:58;13.53;;;4.17;;
18265;SDS011;9259;48.194;16.322;2023-01-31T02:43:33;10.00;;;3.90;;
18265;SDS011;9259;48.194;16.322;2023-01-31T02:46:26;10.77;;;4.37;;
18265;SDS011;9259;48.194;16.322;2023-01-31T02:49:00;8.60;;;3.60;;
18265;SDS011;9259;48.194;16.322;2023-01-31T02:51:31;13.63;;;3.90;;
18265;SDS011;9259;48.194;16.322;2023-01-31T02:54:03;10.37;;;3.90;;
18265;SDS011;9259;48.194;16.322;2023-01-31T02:56:35;7.43;;;3.50;;
18265;SDS011;9259;48.194;16.322;2023-01-31T02:59:04;5.47;;;3.03;;
18265;SDS011;9259;48.194;16.322;2023-01-31T03:01:34;11.63;;;3.50;;
18265;SDS011;9259;48.194;16.322;2023-01-31T03:04:05;8.57;;;3.50;;
18265;SDS011;9259;48.194;16.322;2023-01-31T03:09:32;12.97;;;3.23;;
18265;SDS011;9259;48.194;16.322;2023-01-31T03:12:15;8.10;;;2.93;;
18265;SDS011;9259;48.194;16.322;2023-01-31T03:14:51;9.43;;;3.00;;
18265;SDS011;9259;48.194;16.322;2023-01-31T03:17:28;10.30;;;2.90;;
18265;SDS011;9259;48.194;16.322;2023-01-31T03:20:03;6.37;;;2.50;;
18265;SDS011;9259;48.194;16.322;2023-01-31T03:22:34;7.50;;;2.90;;
18265;SDS011;9259;48.194;16.322;2023-01-31T03:25:04;7.43;;;2.97;;
18265;SDS011;9259;48.194;16.322;2023-01-31T03:27:34;6.37;;;3.07;;
18265;SDS011;9259;48.194;16.322;2023-01-31T03:30:04;10.57;;;3.20;;
18265;SDS011;9259;48.194;16.322;2023-01-31T03:32:37;8.27;;;2.47;;
18265;SDS011;9259;48.194;16.322;2023-01-31T03:35:09;5.23;;;3.17;;
18265;SDS011;9259;48.194;16.322;2023-01-31T03:37:39;7.77;;;3.00;;
18265;SDS011;9259;48.194;16.322;2023-01-31T03:40:11;9.27;;;2.77;;
18265;SDS011;9259;48.194;16.322;2023-01-31T03:42:44;6.63;;;2.43;;
18265;SDS011;9259;48.194;16.322;2023-01-31T03:45:17;8.43;;;2.80;;
18265;SDS011;9259;48.194;16.322;2023-01-31T03:47:48;8.13;;;2.37;;
18265;SDS011;9259;48.194;16.322;2023-01-31T03:50:18;4.57;;;2.10;;
18265;SDS011;9259;48.194;16.322;2023-01-31T03:52:50;7.70;;;2.50;;
18265;SDS011;9259;48.194;16.322;2023-01-31T03:55:21;4.83;;;1.90;;
18265;SDS011;9259;48.194;16.322;2023-01-31T03:57:53;5.07;;;1.93;;
18265;SDS011;9259;48.194;16.322;2023-01-31T04:00:22;6.90;;;2.20;;
18265;SDS011;9259;48.194;16.322;2023-01-31T04:02:54;5.73;;;2.10;;
18265;SDS011;9259;48.194;16.322;2023-01-31T04:05:25;6.30;;;2.37;;
18265;SDS011;9259;48.194;16.322;2023-01-31T04:07:57;6.90;;;2.37;;
18265;SDS011;9259;48.194;16.322;2023-01-31T04:10:25;6.27;;;2.17;;
18265;SDS011;9259;48.194;16.322;2023-01-31T04:12:54;5.27;;;2.23;;
18265;SDS011;9259;48.194;16.322;2023-01-31T04:15:27;3.93;;;2.20;;
18265;SDS011;9259;48.194;16.322;2023-01-31T04:17:58;3.90;;;1.67;;
18265;SDS011;9259;48.194;16.322;2023-01-31T04:20:30;6.93;;;2.10;;
18265;SDS011;9259;48.194;16.322;2023-01-31T04:22:58;5.97;;;2.10;;
18265;SDS011;9259;48.194;16.322;2023-01-31T04:25:27;6.00;;;2.17;;
18265;SDS011;9259;48.194;16.322;2023-01-31T04:27:56;6.07;;;2.40;;
18265;SDS011;9259;48.194;16.322;2023-01-31T04:30:24;6.37;;;2.20;;
18265;SDS011;9259;48.194;16.322;2023-01-31T04:32:52;6.57;;;2.40;;
18265;SDS011;9259;48.194;16.322;2023-01-31T04:35:20;10.17;;;2.20;;
18265;SDS011;9259;48.194;16.322;2023-01-31T04:37:50;9.27;;;2.90;;
18265;SDS011;9259;48.194;16.322;2023-01-31T04:40:18;18.13;;;6.93;;
18265;SDS011;9259;48.194;16.322;2023-01-31T04:42:46;12.83;;;5.00;;
18265;SDS011;9259;48.194;16.322;2023-01-31T04:45:16;12.63;;;4.87;;
18265;SDS011;9259;48.194;16.322;2023-01-31T04:47:44;12.70;;;5.33;;
18265;SDS011;9259;48.194;16.322;2023-01-31T04:50:12;9.33;;;3.10;;
18265;SDS011;9259;48.194;16.322;2023-01-31T04:52:41;6.77;;;2.90;;
18265;SDS011;9259;48.194;16.322;2023-01-31T04:55:10;8.97;;;2.90;;
18265;SDS011;9259;48.194;16.322;2023-01-31T04:57:38;6.10;;;1.83;;
18265;SDS011;9259;48.194;16.322;2023-01-31T05:00:07;6.67;;;2.23;;
18265;SDS011;9259;48.194;16.322;2023-01-31T05:02:36;9.83;;;2.17;;
18265;SDS011;9259;48.194;16.322;2023-01-31T05:05:05;5.53;;;1.97;;
18265;SDS011;9259;48.194;16.322;2023-01-31T05:07:34;8.83;;;2.70;;
18265;SDS011;9259;48.194;16.322;2023-01-31T05:10:02;6.00;;;2.40;;
18265;SDS011;9259;48.194;16.322;2023-01-31T05:12:32;4.87;;;2.30;;
18265;SDS011;9259;48.194;16.322;2023-01-31T05:15:00;7.20;;;2.40;;
18265;SDS011;9259;48.194;16.322;2023-01-31T05:17:44;5.83;;;2.27;;
18265;SDS011;9259;48.194;16.322;2023-01-31T05:20:13;6.10;;;1.90;;
18265;SDS011;9259;48.194;16.322;2023-01-31T05:22:41;7.03;;;2.00;;
18265;SDS011;9259;48.194;16.322;2023-01-31T05:25:09;5.27;;;2.10;;
18265;SDS011;9259;48.194;16.322;2023-01-31T05:27:39;6.80;;;2.13;;
18265;SDS011;9259;48.194;16.322;2023-01-31T05:30:08;7.73;;;2.30;;
18265;SDS011;9259;48.194;16.322;2023-01-31T05:32:37;10.13;;;2.10;;
18265;SDS011;9259;48.194;16.322;2023-01-31T05:35:06;3.63;;;1.60;;
18265;SDS011;9259;48.194;16.322;2023-01-31T05:37:34;3.83;;;1.43;;
18265;SDS011;9259;48.194;16.322;2023-01-31T05:40:03;5.60;;;1.30;;
18265;SDS011;9259;48.194;16.322;2023-01-31T05:42:31;2.53;;;1.27;;
18265;SDS011;9259;48.194;16.322;2023-01-31T05:45:01;3.87;;;0.83;;
18265;SDS011;9259;48.194;16.322;2023-01-31T05:47:29;3.97;;;1.20;;
18265;SDS011;9259;48.194;16.322;2023-01-31T05:49:57;3.00;;;0.93;;
18265;SDS011;9259;48.194;16.322;2023-01-31T05:52:25;5.20;;;0.83;;
18265;SDS011;9259;48.194;16.322;2023-01-31T05:54:53;4.70;;;1.00;;
18265;SDS011;9259;48.194;16.322;2023-01-31T05:57:21;5.03;;;0.83;;
18265;SDS011;9259;48.194;16.322;2023-01-31T05:59:49;2.70;;;0.73;;
18265;SDS011;9259;48.194;16.322;2023-01-31T06:02:19;3.33;;;0.87;;
18265;SDS011;9259;48.194;16.322;2023-01-31T06:04:47;4.27;;;0.73;;
18265;SDS011;9259;48.194;16.322;2023-01-31T06:07:15;4.73;;;0.83;;
18265;SDS011;9259;48.194;16.322;2023-01-31T06:09:43;4.80;;;1.40;;
18265;SDS011;9259;48.194;16.322;2023-01-31T06:12:11;7.13;;;1.30;;
18265;SDS011;9259;48.194;16.322;2023-01-31T06:14:48;5.60;;;2.07;;
18265;SDS011;9259;48.194;16.322;2023-01-31T06:17:16;5.63;;;1.93;;
18265;SDS011;9259;48.194;16.322;2023-01-31T06:19:48;7.93;;;2.73;;
18265;SDS011;9259;48.194;16.322;2023-01-31T06:22:17;8.33;;;3.00;;
18265;SDS011;9259;48.194;16.322;2023-01-31T06:24:45;7.47;;;2.83;;
18265;SDS011;9259;48.194;16.322;2023-01-31T06:27:13;7.97;;;2.53;;
18265;SDS011;9259;48.194;16.322;2023-01-31T06:29:41;10.90;;;2.97;;
18265;SDS011;9259;48.194;16.322;2023-01-31T06:32:10;9.33;;;3.33;;
18265;SDS011;9259;48.194;16.322;2023-01-31T06:34:39;9.60;;;2.70;;
18265;SDS011;9259;48.194;16.322;2023-01-31T06:37:07;9.93;;;3.00;;
18265;SDS011;9259;48.194;16.322;2023-01-31T06:39:36;6.80;;;2.67;;
18265;SDS011;9259;48.194;16.322;2023-01-31T06:42:04;9.43;;;2.70;;
18265;SDS011;9259;48.194;16.322;2023-01-31T06:44:32;8.43;;;2.90;;
18265;SDS011;9259;48.194;16.322;2023-01-31T06:47:02;8.97;;;3.13;;
18265;SDS011;9259;48.194;16.322;2023-01-31T06:49:30;11.37;;;2.80;;
18265;SDS011;9259;48.194;16.322;2023-01-31T06:52:00;8.47;;;3.10;;
18265;SDS011;9259;48.194;16.322;2023-01-31T06:54:28;6.37;;;2.67;;
18265;SDS011;9259;48.194;16.322;2023-01-31T06:56:56;8.17;;;2.60;;
18265;SDS011;9259;48.194;16.322;2023-01-31T06:59:24;5.47;;;2.17;;
18265;SDS011;9259;48.194;16.322;2023-01-31T07:01:52;7.20;;;2.20;;
18265;SDS011;9259;48.194;16.322;2023-01-31T07:04:20;7.93;;;2.67;;
18265;SDS011;9259;48.194;16.322;2023-01-31T07:06:48;7.90;;;2.53;;
18265;SDS011;9259;48.194;16.322;2023-01-31T07:09:18;16.37;;;2.97;;
18265;SDS011;9259;48.194;16.322;2023-01-31T07:11:46;14.23;;;2.97;;
18265;SDS011;9259;48.194;16.322;2023-01-31T07:14:14;10.30;;;3.27;;
18265;SDS011;9259;48.194;16.322;2023-01-31T07:16:42;8.50;;;3.00;;
18265;SDS011;9259;48.194;16.322;2023-01-31T07:19:10;12.00;;;3.10;;
18265;SDS011;9259;48.194;16.322;2023-01-31T07:21:39;10.33;;;2.70;;
18265;SDS011;9259;48.194;16.322;2023-01-31T07:24:07;14.70;;;3.10;;
18265;SDS011;9259;48.194;16.322;2023-01-31T07:26:37;14.47;;;2.83;;
18265;SDS011;9259;48.194;16.322;2023-01-31T07:29:05;9.33;;;2.33;;
18265;SDS011;9259;48.194;16.322;2023-01-31T07:31:33;8.23;;;2.90;;
18265;SDS011;9259;48.194;16.322;2023-01-31T07:34:01;8.60;;;2.23;;
18265;SDS011;9259;48.194;16.322;2023-01-31T07:36:30;6.00;;;2.20;;
18265;SDS011;9259;48.194;16.322;2023-01-31T07:38:58;11.53;;;2.93;;
18265;SDS011;9259;48.194;16.322;2023-01-31T07:41:26;10.77;;;2.57;;
18265;SDS011;9259;48.194;16.322;2023-01-31T07:43:56;8.30;;;2.30;;
18265;SDS011;9259;48.194;16.322;2023-01-31T07:46:25;10.53;;;2.57;;
18265;SDS011;9259;48.194;16.322;2023-01-31T07:48:53;12.77;;;3.23;;
18265;SDS011;9259;48.194;16.322;2023-01-31T07:51:21;15.50;;;3.60;;
18265;SDS011;9259;48.194;16.322;2023-01-31T07:53:49;8.20;;;2.60;;
18265;SDS011;9259;48.194;16.322;2023-01-31T07:56:18;15.87;;;3.57;;
18265;SDS011;9259;48.194;16.322;2023-01-31T07:58:47;9.17;;;2.43;;
18265;SDS011;9259;48.194;16.322;2023-01-31T08:01:18;5.20;;;2.00;;
18265;SDS011;9259;48.194;16.322;2023-01-31T08:04:04;6.63;;;2.00;;
18265;SDS011;9259;48.194;16.322;2023-01-31T08:06:33;8.73;;;2.27;;
18265;SDS011;9259;48.194;16.322;2023-01-31T08:09:01;9.07;;;1.83;;
18265;SDS011;9259;48.194;16.322;2023-01-31T08:11:30;6.83;;;1.70;;
18265;SDS011;9259;48.194;16.322;2023-01-31T08:13:58;7.90;;;2.03;;
18265;SDS011;9259;48.194;16.322;2023-01-31T08:16:27;4.43;;;1.20;;
18265;SDS011;9259;48.194;16.322;2023-01-31T08:18:56;5.13;;;1.10;;
18265;SDS011;9259;48.194;16.322;2023-01-31T08:21:24;5.53;;;1.27;;
18265;SDS011;9259;48.194;16.322;2023-01-31T08:23:52;6.53;;;1.20;;
18265;SDS011;9259;48.194;16.322;2023-01-31T08:26:20;4.30;;;1.00;;
18265;SDS011;9259;48.194;16.322;2023-01-31T08:28:49;6.33;;;1.83;;
18265;SDS011;9259;48.194;16.322;2023-01-31T08:31:19;7.50;;;1.60;;
18265;SDS011;9259;48.194;16.322;2023-01-31T08:33:49;7.33;;;1.10;;
18265;SDS011;9259;48.194;16.322;2023-01-31T08:36:19;3.27;;;0.97;;
18265;SDS011;9259;48.194;16.322;2023-01-31T08:38:48;7.20;;;1.20;;
18265;SDS011;9259;48.194;16.322;2023-01-31T08:41:17;5.60;;;0.80;;
18265;SDS011;9259;48.194;16.322;2023-01-31T08:43:47;5.33;;;0.97;;
18265;SDS011;9259;48.194;16.322;2023-01-31T08:46:15;2.60;;;0.83;;
18265;SDS011;9259;48.194;16.322;2023-01-31T08:48:43;5.37;;;1.00;;
18265;SDS011;9259;48.194;16.322;2023-01-31T08:51:13;6.47;;;0.97;;
18265;SDS011;9259;48.194;16.322;2023-01-31T08:53:41;3.87;;;0.90;;
18265;SDS011;9259;48.194;16.322;2023-01-31T08:56:10;5.07;;;1.37;;
18265;SDS011;9259;48.194;16.322;2023-01-31T08:58:40;12.50;;;1.67;;
18265;SDS011;9259;48.194;16.322;2023-01-31T09:01:10;6.70;;;2.07;;
18265;SDS011;9259;48.194;16.322;2023-01-31T09:03:38;11.40;;;2.63;;
18265;SDS011;9259;48.194;16.322;2023-01-31T09:06:09;11.60;;;2.53;;
18265;SDS011;9259;48.194;16.322;2023-01-31T09:08:39;10.70;;;3.23;;
18265;SDS011;9259;48.194;16.322;2023-01-31T09:11:07;11.63;;;3.37;;
18265;SDS011;9259;48.194;16.322;2023-01-31T09:13:36;11.47;;;3.50;;
18265;SDS011;9259;48.194;16.322;2023-01-31T09:16:04;10.90;;;3.27;;
18265;SDS011;9259;48.194;16.322;2023-01-31T09:18:34;12.13;;;3.03;;
18265;SDS011;9259;48.194;16.322;2023-01-31T09:21:03;15.93;;;3.50;;
18265;SDS011;9259;48.194;16.322;2023-01-31T09:23:32;14.57;;;3.30;;
18265;SDS011;9259;48.194;16.322;2023-01-31T09:26:02;9.87;;;3.83;;
18265;SDS011;9259;48.194;16.322;2023-01-31T09:28:30;8.63;;;3.07;;
18265;SDS011;9259;48.194;16.322;2023-01-31T09:31:01;12.60;;;3.60;;
18265;SDS011;9259;48.194;16.322;2023-01-31T09:33:30;9.23;;;3.47;;
18265;SDS011;9259;48.194;16.322;2023-01-31T09:35:59;11.30;;;3.73;;
18265;SDS011;9259;48.194;16.322;2023-01-31T09:38:28;10.90;;;3.40;;
18265;SDS011;9259;48.194;16.322;2023-01-31T09:40:56;12.13;;;3.13;;
18265;SDS011;9259;48.194;16.322;2023-01-31T09:43:27;11.33;;;3.33;;
18265;SDS011;9259;48.194;16.322;2023-01-31T09:45:59;15.90;;;3.87;;
18265;SDS011;9259;48.194;16.322;2023-01-31T09:48:31;8.77;;;2.87;;
18265;SDS011;9259;48.194;16.322;2023-01-31T09:51:01;12.60;;;4.13;;
18265;SDS011;9259;48.194;16.322;2023-01-31T09:53:31;13.00;;;3.03;;
18265;SDS011;9259;48.194;16.322;2023-01-31T09:56:05;10.67;;;2.93;;
18265;SDS011;9259;48.194;16.322;2023-01-31T09:58:46;9.27;;;3.40;;
18265;SDS011;9259;48.194;16.322;2023-01-31T10:01:20;13.97;;;3.17;;
18265;SDS011;9259;48.194;16.322;2023-01-31T10:03:54;8.37;;;3.03;;
18265;SDS011;9259;48.194;16.322;2023-01-31T10:06:31;7.90;;;2.50;;
18265;SDS011;9259;48.194;16.322;2023-01-31T10:09:03;12.43;;;2.97;;
18265;SDS011;9259;48.194;16.322;2023-01-31T10:11:36;8.83;;;2.50;;
18265;SDS011;9259;48.194;16.322;2023-01-31T10:14:12;7.40;;;2.57;;
18265;SDS011;9259;48.194;16.322;2023-01-31T10:16:49;9.40;;;2.77;;
18265;SDS011;9259;48.194;16.322;2023-01-31T10:19:23;8.33;;;2.50;;
18265;SDS011;9259;48.194;16.322;2023-01-31T10:21:53;8.57;;;2.67;;
18265;SDS011;9259;48.194;16.322;2023-01-31T10:24:25;4.23;;;1.97;;
18265;SDS011;9259;48.194;16.322;2023-01-31T10:26:59;11.33;;;2.37;;
18265;SDS011;9259;48.194;16.322;2023-01-31T10:29:32;11.23;;;2.77;;
18265;SDS011;9259;48.194;16.322;2023-01-31T10:32:03;10.73;;;3.07;;
18265;SDS011;9259;48.194;16.322;2023-01-31T10:34:34;6.13;;;2.07;;
18265;SDS011;9259;48.194;16.322;2023-01-31T10:37:06;8.30;;;2.63;;
18265;SDS011;9259;48.194;16.322;2023-01-31T10:39:39;13.13;;;2.60;;
18265;SDS011;9259;48.194;16.322;2023-01-31T10:42:12;11.43;;;2.20;;
18265;SDS011;9259;48.194;16.322;2023-01-31T10:44:48;13.10;;;2.73;;
18265;SDS011;9259;48.194;16.322;2023-01-31T10:47:18;9.13;;;2.47;;
18265;SDS011;9259;48.194;16.322;2023-01-31T10:49:48;10.27;;;3.10;;
18265;SDS011;9259;48.194;16.322;2023-01-31T10:52:30;10.10;;;2.57;;
18265;SDS011;9259;48.194;16.322;2023-01-31T10:55:23;12.47;;;3.00;;
18265;SDS011;9259;48.194;16.322;2023-01-31T10:57:58;7.00;;;2.07;;
18265;SDS011;9259;48.194;16.322;2023-01-31T11:00:29;13.50;;;3.30;;
18265;SDS011;9259;48.194;16.322;2023-01-31T11:02:58;12.30;;;3.27;;
18265;SDS011;9259;48.194;16.322;2023-01-31T11:05:26;7.50;;;2.47;;
18265;SDS011;9259;48.194;16.322;2023-01-31T11:07:56;12.90;;;3.40;;
18265;SDS011;9259;48.194;16.322;2023-01-31T11:10:26;16.53;;;2.23;;
18265;SDS011;9259;48.194;16.322;2023-01-31T11:12:56;6.63;;;1.90;;
18265;SDS011;9259;48.194;16.322;2023-01-31T11:15:27;5.00;;;1.67;;
18265;SDS011;9259;48.194;16.322;2023-01-31T11:18:00;6.60;;;1.90;;
18265;SDS011;9259;48.194;16.322;2023-01-31T11:20:29;10.70;;;1.87;;
18265;SDS011;9259;48.194;16.322;2023-01-31T11:22:59;7.63;;;2.37;;
18265;SDS011;9259;48.194;16.322;2023-01-31T11:25:28;6.23;;;1.40;;
18265;SDS011;9259;48.194;16.322;2023-01-31T11:27:58;6.97;;;1.97;;
18265;SDS011;9259;48.194;16.322;2023-01-31T11:30:30;9.67;;;1.67;;
18265;SDS011;9259;48.194;16.322;2023-01-31T11:33:00;5.67;;;1.70;;
18265;SDS011;9259;48.194;16.322;2023-01-31T11:35:28;4.43;;;1.30;;
18265;SDS011;9259;48.194;16.322;2023-01-31T11:37:58;8.37;;;2.10;;
18265;SDS011;9259;48.194;16.322;2023-01-31T11:40:29;6.80;;;1.80;;
18265;SDS011;9259;48.194;16.322;2023-01-31T11:42:59;8.90;;;1.90;;
18265;SDS011;9259;48.194;16.322;2023-01-31T11:45:30;9.10;;;2.27;;
18265;SDS011;9259;48.194;16.322;2023-01-31T11:48:04;5.67;;;2.00;;
18265;SDS011;9259;48.194;16.322;2023-01-31T11:50:37;5.67;;;1.87;;
18265;SDS011;9259;48.194;16.322;2023-01-31T11:53:13;9.13;;;2.30;;
18265;SDS011;9259;48.194;16.322;2023-01-31T11:55:43;8.83;;;2.03;;
18265;SDS011;9259;48.194;16.322;2023-01-31T11:58:14;6.90;;;2.60;;
18265;SDS011;9259;48.194;16.322;2023-01-31T12:00:52;5.70;;;2.30;;
18265;SDS011;9259;48.194;16.322;2023-01-31T12:03:22;8.37;;;2.30;;
18265;SDS011;9259;48.194;16.322;2023-01-31T12:05:58;8.87;;;2.50;;
18265;SDS011;9259;48.194;16.322;2023-01-31T12:08:28;10.50;;;2.80;;
18265;SDS011;9259;48.194;16.322;2023-01-31T12:10:57;8.27;;;2.60;;
18265;SDS011;9259;48.194;16.322;2023-01-31T12:13:30;5.77;;;2.20;;
18265;SDS011;9259;48.194;16.322;2023-01-31T12:16:00;11.90;;;2.87;;
18265;SDS011;9259;48.194;16.322;2023-01-31T12:21:22;11.07;;;2.30;;
18265;SDS011;9259;48.194;16.322;2023-01-31T12:23:57;10.97;;;2.80;;
18265;SDS011;9259;48.194;16.322;2023-01-31T12:26:34;8.70;;;2.50;;
18265;SDS011;9259;48.194;16.322;2023-01-31T12:29:20;8.87;;;2.53;;
18265;SDS011;9259;48.194;16.322;2023-01-31T12:32:12;8.80;;;2.83;;
18265;SDS011;9259;48.194;16.322;2023-01-31T12:34:57;7.33;;;2.80;;
18265;SDS011;9259;48.194;16.322;2023-01-31T12:37:42;13.17;;;2.30;;
18265;SDS011;9259;48.194;16.322;2023-01-31T12:40:22;9.00;;;3.27;;
18265;SDS011;9259;48.194;16.322;2023-01-31T12:43:00;9.60;;;2.53;;
18265;SDS011;9259;48.194;16.322;2023-01-31T12:45:36;8.40;;;2.60;;
18265;SDS011;9259;48.194;16.322;2023-01-31T12:51:16;13.80;;;3.57;;
18265;SDS011;9259;48.194;16.322;2023-01-31T12:53:56;9.30;;;2.67;;
18265;SDS011;9259;48.194;16.322;2023-01-31T12:59:18;7.77;;;2.77;;
18265;SDS011;9259;48.194;16.322;2023-01-31T13:01:56;5.73;;;2.40;;
18265;SDS011;9259;48.194;16.322;2023-01-31T13:04:32;12.90;;;2.40;;
18265;SDS011;9259;48.194;16.322;2023-01-31T13:07:05;9.07;;;2.20;;
18265;SDS011;9259;48.194;16.322;2023-01-31T13:09:37;7.03;;;2.10;;
18265;SDS011;9259;48.194;16.322;2023-01-31T13:12:06;9.07;;;2.53;;
18265;SDS011;9259;48.194;16.322;2023-01-31T13:14:38;6.37;;;2.47;;
18265;SDS011;9259;48.194;16.322;2023-01-31T13:17:09;10.00;;;2.10;;
18265;SDS011;9259;48.194;16.322;2023-01-31T13:19:42;9.00;;;2.57;;
18265;SDS011;9259;48.194;16.322;2023-01-31T13:22:13;9.13;;;2.10;;
18265;SDS011;9259;48.194;16.322;2023-01-31T13:24:45;6.53;;;1.93;;
18265;SDS011;9259;48.194;16.322;2023-01-31T13:27:18;6.33;;;1.80;;
18265;SDS011;9259;48.194;16.322;2023-01-31T13:29:50;8.37;;;2.17;;
18265;SDS011;9259;48.194;16.322;2023-01-31T13:32:24;9.47;;;2.30;;
18265;SDS011;9259;48.194;16.322;2023-01-31T13:34:58;9.13;;;2.20;;
18265;SDS011;9259;48.194;16.322;2023-01-31T13:37:29;7.50;;;2.30;;
18265;SDS011;9259;48.194;16.322;2023-01-31T13:40:00;7.13;;;2.03;;
18265;SDS011;9259;48.194;16.322;2023-01-31T13:42:30;6.30;;;2.20;;
18265;SDS011;9259;48.194;16.322;2023-01-31T13:44:59;5.80;;;2.10;;
18265;SDS011;9259;48.194;16.322;2023-01-31T13:47:32;8.47;;;2.10;;
18265;SDS011;9259;48.194;16.322;2023-01-31T13:50:08;9.80;;;2.27;;
18265;SDS011;9259;48.194;16.322;2023-01-31T13:52:43;8.67;;;1.63;;
18265;SDS011;9259;48.194;16.322;2023-01-31T13:55:15;6.67;;;1.63;;
18265;SDS011;9259;48.194;16.322;2023-01-31T13:57:50;9.20;;;2.03;;
18265;SDS011;9259;48.194;16.322;2023-01-31T14:00:25;6.00;;;1.80;;
18265;SDS011;9259;48.194;16.322;2023-01-31T14:03:02;4.70;;;1.43;;
18265;SDS011;9259;48.194;16.322;2023-01-31T14:05:52;7.13;;;1.67;;
18265;SDS011;9259;48.194;16.322;2023-01-31T14:08:35;10.67;;;2.10;;
18265;SDS011;9259;48.194;16.322;2023-01-31T14:11:31;10.13;;;1.73;;
18265;SDS011;9259;48.194;16.322;2023-01-31T14:16:47;6.07;;;1.57;;
18265;SDS011;9259;48.194;16.322;2023-01-31T14:22:23;8.90;;;1.63;;
18265;SDS011;9259;48.194;16.322;2023-01-31T14:24:55;5.60;;;1.30;;
18265;SDS011;9259;48.194;16.322;2023-01-31T14:27:25;9.03;;;1.07;;
18265;SDS011;9259;48.194;16.322;2023-01-31T14:29:56;12.03;;;1.70;;
18265;SDS011;9259;48.194;16.322;2023-01-31T14:32:34;6.80;;;1.63;;
18265;SDS011;9259;48.194;16.322;2023-01-31T14:35:16;10.67;;;1.27;;
18265;SDS011;9259;48.194;16.322;2023-01-31T14:37:56;17.57;;;1.90;;
18265;SDS011;9259;48.194;16.322;2023-01-31T14:40:30;10.30;;;1.73;;
18265;SDS011;9259;48.194;16.322;2023-01-31T14:43:08;10.27;;;1.83;;
18265;SDS011;9259;48.194;16.322;2023-01-31T14:45:58;7.53;;;1.50;;
18265;SDS011;9259;48.194;16.322;2023-01-31T14:51:38;11.13;;;1.67;;
18265;SDS011;9259;48.194;16.322;2023-01-31T14:54:29;11.00;;;1.80;;
18265;SDS011;9259;48.194;16.322;2023-01-31T14:57:11;11.03;;;2.07;;
18265;SDS011;9259;48.194;16.322;2023-01-31T14:59:44;10.37;;;1.60;;
18265;SDS011;9259;48.194;16.322;2023-01-31T15:02:21;8.07;;;2.07;;
18265;SDS011;9259;48.194;16.322;2023-01-31T15:04:58;7.77;;;1.90;;
18265;SDS011;9259;48.194;16.322;2023-01-31T15:07:28;10.87;;;2.10;;
18265;SDS011;9259;48.194;16.322;2023-01-31T15:09:57;8.97;;;1.80;;
18265;SDS011;9259;48.194;16.322;2023-01-31T15:15:22;9.87;;;2.40;;
18265;SDS011;9259;48.194;16.322;2023-01-31T15:17:58;9.77;;;2.00;;
18265;SDS011;9259;48.194;16.322;2023-01-31T15:20:30;12.67;;;2.67;;
18265;SDS011;9259;48.194;16.322;2023-01-31T15:23:03;9.00;;;1.90;;
18265;SDS011;9259;48.194;16.322;2023-01-31T15:25:41;9.27;;;1.90;;
18265;SDS011;9259;48.194;16.322;2023-01-31T15:28:16;10.27;;;2.20;;
18265;SDS011;9259;48.194;16.322;2023-01-31T15:30:46;11.80;;;1.80;;
18265;SDS011;9259;48.194;16.322;2023-01-31T15:33:16;8.77;;;2.00;;
18265;SDS011;9259;48.194;16.322;2023-01-31T15:35:48;9.30;;;2.10;;